sensor_id;sensor_type;location;lat;lon;timestamp;P1;durP1;ratioP1;P2;durP2;ratioP2
1699;SDS011;847;48.058;7.810;2023-05-10T00:01:41;1.10;;;1.00;;
1699;SDS011;847;48.058;7.810;2023-05-10T00:04:08;1.00;;;0.77;;
1699;SDS011;847;48.058;7.810;2023-05-10T00:06:35;1.90;;;1.13;;
1699;SDS011;847;48.058;7.810;2023-05-10T00:09:01;1.57;;;1.17;;
1699;SDS011;847;48.058;7.810;2023-05-10T00:11:28;5.97;;;1.70;;
1699;SDS011;847;48.058;7.810;2023-05-10T00:13:55;1.63;;;1.53;;
1699;SDS011;847;48.058;7.810;2023-05-10T00:16:22;2.03;;;1.00;;
1699;SDS011;847;48.058;7.810;2023-05-10T00:18:50;1.33;;;1.10;;
1699;SDS011;847;48.058;7.810;2023-05-10T00:21:17;0.93;;;0.93;;
1699;SDS011;847;48.058;7.810;2023-05-10T00:23:44;0.93;;;0.80;;
1699;SDS011;847;48.058;7.810;2023-05-10T00:26:10;0.90;;;0.90;;
1699;SDS011;847;48.058;7.810;2023-05-10T00:28:37;4.30;;;1.03;;
1699;SDS011;847;48.058;7.810;2023-05-10T00:31:04;2.20;;;1.00;;
1699;SDS011;847;48.058;7.810;2023-05-10T00:33:31;1.33;;;1.23;;
1699;SDS011;847;48.058;7.810;2023-05-10T00:35:59;0.97;;;0.93;;
1699;SDS011;847;48.058;7.810;2023-05-10T00:38:26;2.10;;;0.80;;
1699;SDS011;847;48.058;7.810;2023-05-10T00:40:52;0.80;;;0.80;;
1699;SDS011;847;48.058;7.810;2023-05-10T00:43:19;2.07;;;1.10;;
1699;SDS011;847;48.058;7.810;2023-05-10T00:45:46;1.83;;;1.07;;
1699;SDS011;847;48.058;7.810;2023-05-10T00:48:13;1.87;;;0.80;;
1699;SDS011;847;48.058;7.810;2023-05-10T00:50:40;2.83;;;1.10;;
1699;SDS011;847;48.058;7.810;2023-05-10T00:53:08;0.93;;;0.80;;
1699;SDS011;847;48.058;7.810;2023-05-10T00:55:35;0.80;;;0.80;;
1699;SDS011;847;48.058;7.810;2023-05-10T00:58:03;0.90;;;0.90;;
1699;SDS011;847;48.058;7.810;2023-05-10T01:00:30;1.00;;;0.90;;
1699;SDS011;847;48.058;7.810;2023-05-10T01:02:59;0.90;;;0.83;;
1699;SDS011;847;48.058;7.810;2023-05-10T01:05:26;2.30;;;1.27;;
1699;SDS011;847;48.058;7.810;2023-05-10T01:07:53;1.20;;;1.07;;
1699;SDS011;847;48.058;7.810;2023-05-10T01:10:21;3.63;;;1.30;;
1699;SDS011;847;48.058;7.810;2023-05-10T01:12:48;2.30;;;1.10;;
1699;SDS011;847;48.058;7.810;2023-05-10T01:15:15;2.43;;;1.77;;
1699;SDS011;847;48.058;7.810;2023-05-10T01:17:43;1.23;;;1.13;;
1699;SDS011;847;48.058;7.810;2023-05-10T01:20:12;1.00;;;0.90;;
1699;SDS011;847;48.058;7.810;2023-05-10T01:22:43;0.90;;;0.90;;
1699;SDS011;847;48.058;7.810;2023-05-10T01:25:34;1.20;;;1.10;;
1699;SDS011;847;48.058;7.810;2023-05-10T01:28:37;3.23;;;1.50;;
1699;SDS011;847;48.058;7.810;2023-05-10T01:31:31;1.10;;;0.90;;
1699;SDS011;847;48.058;7.810;2023-05-10T01:34:11;1.57;;;1.03;;
1699;SDS011;847;48.058;7.810;2023-05-10T01:36:43;1.63;;;1.07;;
1699;SDS011;847;48.058;7.810;2023-05-10T01:39:15;1.70;;;1.20;;
1699;SDS011;847;48.058;7.810;2023-05-10T01:41:47;1.53;;;1.03;;
1699;SDS011;847;48.058;7.810;2023-05-10T01:44:20;1.07;;;0.97;;
1699;SDS011;847;48.058;7.810;2023-05-10T01:46:56;2.97;;;1.17;;
1699;SDS011;847;48.058;7.810;2023-05-10T01:49:31;1.23;;;0.70;;
1699;SDS011;847;48.058;7.810;2023-05-10T01:52:03;2.33;;;1.10;;
1699;SDS011;847;48.058;7.810;2023-05-10T01:54:33;1.10;;;1.00;;
1699;SDS011;847;48.058;7.810;2023-05-10T01:57:02;2.40;;;1.00;;
1699;SDS011;847;48.058;7.810;2023-05-10T01:59:34;1.77;;;1.17;;
1699;SDS011;847;48.058;7.810;2023-05-10T02:02:05;1.10;;;1.00;;
1699;SDS011;847;48.058;7.810;2023-05-10T02:04:38;1.00;;;0.90;;
1699;SDS011;847;48.058;7.810;2023-05-10T02:07:06;0.97;;;0.87;;
1699;SDS011;847;48.058;7.810;2023-05-10T02:09:34;2.00;;;1.00;;
1699;SDS011;847;48.058;7.810;2023-05-10T02:12:02;1.63;;;1.23;;
1699;SDS011;847;48.058;7.810;2023-05-10T02:14:32;4.10;;;1.20;;
1699;SDS011;847;48.058;7.810;2023-05-10T02:17:02;1.70;;;0.97;;
1699;SDS011;847;48.058;7.810;2023-05-10T02:19:31;1.63;;;1.03;;
1699;SDS011;847;48.058;7.810;2023-05-10T02:22:00;2.97;;;1.57;;
1699;SDS011;847;48.058;7.810;2023-05-10T02:24:27;1.10;;;1.00;;
1699;SDS011;847;48.058;7.810;2023-05-10T02:26:55;2.37;;;1.33;;
1699;SDS011;847;48.058;7.810;2023-05-10T02:29:23;2.20;;;1.13;;
1699;SDS011;847;48.058;7.810;2023-05-10T02:31:52;1.90;;;1.07;;
1699;SDS011;847;48.058;7.810;2023-05-10T02:34:21;2.47;;;1.30;;
1699;SDS011;847;48.058;7.810;2023-05-10T02:36:49;2.40;;;1.00;;
1699;SDS011;847;48.058;7.810;2023-05-10T02:39:18;1.53;;;1.27;;
1699;SDS011;847;48.058;7.810;2023-05-10T02:41:47;2.83;;;1.27;;
1699;SDS011;847;48.058;7.810;2023-05-10T02:44:17;2.37;;;1.00;;
1699;SDS011;847;48.058;7.810;2023-05-10T02:46:45;1.77;;;1.20;;
1699;SDS011;847;48.058;7.810;2023-05-10T02:49:12;2.33;;;1.30;;
1699;SDS011;847;48.058;7.810;2023-05-10T02:51:40;2.27;;;1.30;;
1699;SDS011;847;48.058;7.810;2023-05-10T02:54:11;1.00;;;1.00;;
1699;SDS011;847;48.058;7.810;2023-05-10T02:56:49;1.53;;;1.10;;
1699;SDS011;847;48.058;7.810;2023-05-10T02:59:19;1.83;;;1.10;;
1699;SDS011;847;48.058;7.810;2023-05-10T03:01:46;1.70;;;1.50;;
1699;SDS011;847;48.058;7.810;2023-05-10T03:04:13;2.70;;;1.30;;
1699;SDS011;847;48.058;7.810;2023-05-10T03:06:40;1.37;;;1.27;;
1699;SDS011;847;48.058;7.810;2023-05-10T03:09:07;1.20;;;1.10;;
1699;SDS011;847;48.058;7.810;2023-05-10T03:11:39;2.20;;;1.20;;
1699;SDS011;847;48.058;7.810;2023-05-10T03:14:21;1.80;;;1.10;;
1699;SDS011;847;48.058;7.810;2023-05-10T03:17:04;1.40;;;1.30;;
1699;SDS011;847;48.058;7.810;2023-05-10T03:19:37;1.33;;;1.20;;
1699;SDS011;847;48.058;7.810;2023-05-10T03:22:10;1.30;;;1.20;;
1699;SDS011;847;48.058;7.810;2023-05-10T03:24:39;1.93;;;1.40;;
1699;SDS011;847;48.058;7.810;2023-05-10T03:27:08;2.30;;;1.47;;
1699;SDS011;847;48.058;7.810;2023-05-10T03:29:36;1.80;;;1.70;;
1699;SDS011;847;48.058;7.810;2023-05-10T03:32:05;1.87;;;1.10;;
1699;SDS011;847;48.058;7.810;2023-05-10T03:34:32;2.07;;;1.47;;
1699;SDS011;847;48.058;7.810;2023-05-10T03:36:58;1.40;;;1.30;;
1699;SDS011;847;48.058;7.810;2023-05-10T03:39:25;1.53;;;1.33;;
1699;SDS011;847;48.058;7.810;2023-05-10T03:41:52;1.90;;;1.53;;
1699;SDS011;847;48.058;7.810;2023-05-10T03:44:20;3.80;;;1.40;;
1699;SDS011;847;48.058;7.810;2023-05-10T03:46:47;1.60;;;1.50;;
1699;SDS011;847;48.058;7.810;2023-05-10T03:49:13;1.20;;;1.10;;
1699;SDS011;847;48.058;7.810;2023-05-10T03:51:40;4.13;;;1.47;;
1699;SDS011;847;48.058;7.810;2023-05-10T03:54:07;2.87;;;1.40;;
1699;SDS011;847;48.058;7.810;2023-05-10T03:56:33;2.00;;;1.70;;
1699;SDS011;847;48.058;7.810;2023-05-10T03:59:00;1.60;;;1.50;;
1699;SDS011;847;48.058;7.810;2023-05-10T04:01:33;1.37;;;1.27;;
1699;SDS011;847;48.058;7.810;2023-05-10T04:04:00;4.60;;;1.53;;
1699;SDS011;847;48.058;7.810;2023-05-10T04:06:26;1.40;;;1.30;;
1699;SDS011;847;48.058;7.810;2023-05-10T04:08:53;1.70;;;1.60;;
1699;SDS011;847;48.058;7.810;2023-05-10T04:11:20;2.80;;;1.57;;
1699;SDS011;847;48.058;7.810;2023-05-10T04:13:47;1.50;;;1.40;;
1699;SDS011;847;48.058;7.810;2023-05-10T04:16:14;2.50;;;1.50;;
1699;SDS011;847;48.058;7.810;2023-05-10T04:18:42;1.37;;;1.27;;
1699;SDS011;847;48.058;7.810;2023-05-10T04:21:11;1.90;;;1.80;;
1699;SDS011;847;48.058;7.810;2023-05-10T04:23:38;1.83;;;1.60;;
1699;SDS011;847;48.058;7.810;2023-05-10T04:26:06;1.57;;;1.47;;
1699;SDS011;847;48.058;7.810;2023-05-10T04:28:32;2.27;;;1.57;;
1699;SDS011;847;48.058;7.810;2023-05-10T04:31:00;2.30;;;1.20;;
1699;SDS011;847;48.058;7.810;2023-05-10T04:33:28;1.20;;;1.10;;
1699;SDS011;847;48.058;7.810;2023-05-10T04:35:56;1.63;;;1.30;;
1699;SDS011;847;48.058;7.810;2023-05-10T04:38:23;3.33;;;1.87;;
1699;SDS011;847;48.058;7.810;2023-05-10T04:40:50;3.07;;;1.60;;
1699;SDS011;847;48.058;7.810;2023-05-10T04:43:17;7.50;;;1.73;;
1699;SDS011;847;48.058;7.810;2023-05-10T04:45:43;1.43;;;1.30;;
1699;SDS011;847;48.058;7.810;2023-05-10T04:48:10;1.50;;;1.40;;
1699;SDS011;847;48.058;7.810;2023-05-10T04:50:37;1.83;;;1.57;;
1699;SDS011;847;48.058;7.810;2023-05-10T04:53:06;1.73;;;1.63;;
1699;SDS011;847;48.058;7.810;2023-05-10T04:55:33;2.50;;;1.53;;
1699;SDS011;847;48.058;7.810;2023-05-10T04:57:59;3.20;;;1.33;;
1699;SDS011;847;48.058;7.810;2023-05-10T05:00:26;5.23;;;1.40;;
1699;SDS011;847;48.058;7.810;2023-05-10T05:02:53;1.43;;;1.33;;
1699;SDS011;847;48.058;7.810;2023-05-10T05:05:19;2.40;;;1.87;;
1699;SDS011;847;48.058;7.810;2023-05-10T05:07:46;2.03;;;1.43;;
1699;SDS011;847;48.058;7.810;2023-05-10T05:10:14;1.73;;;1.53;;
1699;SDS011;847;48.058;7.810;2023-05-10T05:12:41;1.67;;;1.57;;
1699;SDS011;847;48.058;7.810;2023-05-10T05:15:08;2.00;;;1.77;;
1699;SDS011;847;48.058;7.810;2023-05-10T05:17:35;1.60;;;1.50;;
1699;SDS011;847;48.058;7.810;2023-05-10T05:20:02;2.80;;;1.87;;
1699;SDS011;847;48.058;7.810;2023-05-10T05:22:30;1.70;;;1.60;;
1699;SDS011;847;48.058;7.810;2023-05-10T05:24:57;3.20;;;1.60;;
1699;SDS011;847;48.058;7.810;2023-05-10T05:27:25;2.40;;;2.00;;
1699;SDS011;847;48.058;7.810;2023-05-10T05:29:52;3.70;;;1.67;;
1699;SDS011;847;48.058;7.810;2023-05-10T05:32:19;5.77;;;1.70;;
1699;SDS011;847;48.058;7.810;2023-05-10T05:34:46;1.90;;;1.80;;
1699;SDS011;847;48.058;7.810;2023-05-10T05:37:13;3.00;;;1.77;;
1699;SDS011;847;48.058;7.810;2023-05-10T05:39:40;2.90;;;2.33;;
1699;SDS011;847;48.058;7.810;2023-05-10T05:42:07;1.93;;;1.83;;
1699;SDS011;847;48.058;7.810;2023-05-10T05:44:36;2.70;;;2.23;;
1699;SDS011;847;48.058;7.810;2023-05-10T05:47:03;1.60;;;1.50;;
1699;SDS011;847;48.058;7.810;2023-05-10T05:49:30;2.37;;;1.67;;
1699;SDS011;847;48.058;7.810;2023-05-10T05:51:58;3.90;;;3.00;;
1699;SDS011;847;48.058;7.810;2023-05-10T05:54:25;2.90;;;1.70;;
1699;SDS011;847;48.058;7.810;2023-05-10T05:56:53;5.83;;;2.03;;
1699;SDS011;847;48.058;7.810;2023-05-10T05:59:20;2.00;;;1.90;;
1699;SDS011;847;48.058;7.810;2023-05-10T06:01:49;2.43;;;2.10;;
1699;SDS011;847;48.058;7.810;2023-05-10T06:04:16;2.60;;;1.90;;
1699;SDS011;847;48.058;7.810;2023-05-10T06:06:43;5.77;;;1.90;;
1699;SDS011;847;48.058;7.810;2023-05-10T06:09:10;1.80;;;1.50;;
1699;SDS011;847;48.058;7.810;2023-05-10T06:11:37;1.97;;;1.70;;
1699;SDS011;847;48.058;7.810;2023-05-10T06:14:04;1.93;;;1.73;;
1699;SDS011;847;48.058;7.810;2023-05-10T06:16:32;1.77;;;1.57;;
1699;SDS011;847;48.058;7.810;2023-05-10T06:19:00;1.90;;;1.50;;
1699;SDS011;847;48.058;7.810;2023-05-10T06:21:27;2.10;;;1.70;;
1699;SDS011;847;48.058;7.810;2023-05-10T06:23:54;2.33;;;1.50;;
1699;SDS011;847;48.058;7.810;2023-05-10T06:26:21;1.57;;;1.40;;
1699;SDS011;847;48.058;7.810;2023-05-10T06:28:47;2.93;;;1.50;;
1699;SDS011;847;48.058;7.810;2023-05-10T06:31:14;1.90;;;1.60;;
1699;SDS011;847;48.058;7.810;2023-05-10T06:33:41;1.33;;;1.23;;
1699;SDS011;847;48.058;7.810;2023-05-10T06:36:09;1.53;;;1.30;;
1699;SDS011;847;48.058;7.810;2023-05-10T06:38:36;1.80;;;1.40;;
1699;SDS011;847;48.058;7.810;2023-05-10T06:41:02;3.93;;;1.50;;
1699;SDS011;847;48.058;7.810;2023-05-10T06:43:29;3.63;;;1.27;;
1699;SDS011;847;48.058;7.810;2023-05-10T06:45:56;2.40;;;1.43;;
1699;SDS011;847;48.058;7.810;2023-05-10T06:48:23;2.33;;;1.57;;
1699;SDS011;847;48.058;7.810;2023-05-10T06:50:50;3.50;;;2.30;;
1699;SDS011;847;48.058;7.810;2023-05-10T06:53:18;2.97;;;2.20;;
1699;SDS011;847;48.058;7.810;2023-05-10T06:55:45;2.27;;;1.73;;
1699;SDS011;847;48.058;7.810;2023-05-10T06:58:12;1.97;;;1.80;;
1699;SDS011;847;48.058;7.810;2023-05-10T07:00:38;3.10;;;2.20;;
1699;SDS011;847;48.058;7.810;2023-05-10T07:03:05;3.83;;;2.30;;
1699;SDS011;847;48.058;7.810;2023-05-10T07:05:32;2.50;;;2.00;;
1699;SDS011;847;48.058;7.810;2023-05-10T07:07:59;5.10;;;2.70;;
1699;SDS011;847;48.058;7.810;2023-05-10T07:10:27;2.50;;;1.77;;
1699;SDS011;847;48.058;7.810;2023-05-10T07:12:54;3.20;;;2.00;;
1699;SDS011;847;48.058;7.810;2023-05-10T07:15:21;2.67;;;2.07;;
1699;SDS011;847;48.058;7.810;2023-05-10T07:17:48;4.03;;;2.20;;
1699;SDS011;847;48.058;7.810;2023-05-10T07:20:16;2.63;;;2.00;;
1699;SDS011;847;48.058;7.810;2023-05-10T07:22:43;2.30;;;2.10;;
1699;SDS011;847;48.058;7.810;2023-05-10T07:25:10;2.07;;;1.87;;
1699;SDS011;847;48.058;7.810;2023-05-10T07:27:38;2.50;;;1.67;;
1699;SDS011;847;48.058;7.810;2023-05-10T07:30:05;5.40;;;2.20;;
1699;SDS011;847;48.058;7.810;2023-05-10T07:32:33;4.33;;;2.10;;
1699;SDS011;847;48.058;7.810;2023-05-10T07:34:59;4.67;;;2.20;;
1699;SDS011;847;48.058;7.810;2023-05-10T07:37:26;2.93;;;2.73;;
1699;SDS011;847;48.058;7.810;2023-05-10T07:39:53;3.17;;;2.20;;
1699;SDS011;847;48.058;7.810;2023-05-10T07:42:21;2.23;;;2.00;;
1699;SDS011;847;48.058;7.810;2023-05-10T07:44:49;2.23;;;1.80;;
1699;SDS011;847;48.058;7.810;2023-05-10T07:47:16;4.33;;;2.47;;
1699;SDS011;847;48.058;7.810;2023-05-10T07:49:42;6.10;;;1.90;;
1699;SDS011;847;48.058;7.810;2023-05-10T07:52:09;2.40;;;2.00;;
1699;SDS011;847;48.058;7.810;2023-05-10T07:54:36;2.50;;;2.30;;
1699;SDS011;847;48.058;7.810;2023-05-10T07:57:03;2.23;;;2.03;;
1699;SDS011;847;48.058;7.810;2023-05-10T07:59:30;7.13;;;2.30;;
1699;SDS011;847;48.058;7.810;2023-05-10T08:01:58;3.00;;;1.90;;
1699;SDS011;847;48.058;7.810;2023-05-10T08:04:25;2.20;;;1.83;;
1699;SDS011;847;48.058;7.810;2023-05-10T08:06:52;4.70;;;2.13;;
1699;SDS011;847;48.058;7.810;2023-05-10T08:09:19;2.70;;;1.80;;
1699;SDS011;847;48.058;7.810;2023-05-10T08:11:48;2.40;;;1.97;;
1699;SDS011;847;48.058;7.810;2023-05-10T08:14:15;3.00;;;2.00;;
1699;SDS011;847;48.058;7.810;2023-05-10T08:16:42;3.73;;;1.87;;
1699;SDS011;847;48.058;7.810;2023-05-10T08:19:10;2.40;;;2.20;;
1699;SDS011;847;48.058;7.810;2023-05-10T08:21:37;1.80;;;1.70;;
1699;SDS011;847;48.058;7.810;2023-05-10T08:24:05;1.93;;;1.83;;
1699;SDS011;847;48.058;7.810;2023-05-10T08:26:32;2.70;;;1.93;;
1699;SDS011;847;48.058;7.810;2023-05-10T08:28:59;2.17;;;1.97;;
1699;SDS011;847;48.058;7.810;2023-05-10T08:31:26;5.30;;;2.10;;
1699;SDS011;847;48.058;7.810;2023-05-10T08:33:53;3.67;;;1.60;;
1699;SDS011;847;48.058;7.810;2023-05-10T08:36:21;3.43;;;1.93;;
1699;SDS011;847;48.058;7.810;2023-05-10T08:38:49;2.43;;;1.73;;
1699;SDS011;847;48.058;7.810;2023-05-10T08:41:17;2.13;;;1.70;;
1699;SDS011;847;48.058;7.810;2023-05-10T08:43:45;1.63;;;1.53;;
1699;SDS011;847;48.058;7.810;2023-05-10T08:46:13;3.50;;;1.70;;
1699;SDS011;847;48.058;7.810;2023-05-10T08:48:43;4.60;;;1.60;;
1699;SDS011;847;48.058;7.810;2023-05-10T08:51:11;2.40;;;1.57;;
1699;SDS011;847;48.058;7.810;2023-05-10T08:53:41;2.53;;;1.57;;
1699;SDS011;847;48.058;7.810;2023-05-10T08:56:08;1.93;;;1.83;;
1699;SDS011;847;48.058;7.810;2023-05-10T08:58:35;2.63;;;1.80;;
1699;SDS011;847;48.058;7.810;2023-05-10T09:01:02;3.37;;;1.77;;
1699;SDS011;847;48.058;7.810;2023-05-10T09:03:29;4.70;;;2.47;;
1699;SDS011;847;48.058;7.810;2023-05-10T09:05:56;6.90;;;1.70;;
1699;SDS011;847;48.058;7.810;2023-05-10T09:08:23;2.20;;;1.53;;
1699;SDS011;847;48.058;7.810;2023-05-10T09:10:53;5.50;;;1.50;;
1699;SDS011;847;48.058;7.810;2023-05-10T09:13:21;2.10;;;1.30;;
1699;SDS011;847;48.058;7.810;2023-05-10T09:15:48;2.17;;;1.30;;
1699;SDS011;847;48.058;7.810;2023-05-10T09:18:16;4.60;;;2.13;;
1699;SDS011;847;48.058;7.810;2023-05-10T09:20:43;3.67;;;1.60;;
1699;SDS011;847;48.058;7.810;2023-05-10T09:23:09;7.00;;;1.80;;
1699;SDS011;847;48.058;7.810;2023-05-10T09:25:36;4.43;;;1.67;;
1699;SDS011;847;48.058;7.810;2023-05-10T09:28:07;7.70;;;1.80;;
1699;SDS011;847;48.058;7.810;2023-05-10T09:30:34;3.70;;;2.50;;
1699;SDS011;847;48.058;7.810;2023-05-10T09:33:01;4.50;;;1.63;;
1699;SDS011;847;48.058;7.810;2023-05-10T09:35:28;5.60;;;1.70;;
1699;SDS011;847;48.058;7.810;2023-05-10T09:37:57;1.97;;;1.50;;
1699;SDS011;847;48.058;7.810;2023-05-10T09:40:26;3.30;;;2.00;;
1699;SDS011;847;48.058;7.810;2023-05-10T09:42:54;5.37;;;1.97;;
1699;SDS011;847;48.058;7.810;2023-05-10T09:45:24;3.17;;;1.33;;
1699;SDS011;847;48.058;7.810;2023-05-10T09:47:51;2.63;;;1.80;;
1699;SDS011;847;48.058;7.810;2023-05-10T09:50:18;2.47;;;1.70;;
1699;SDS011;847;48.058;7.810;2023-05-10T09:52:46;5.47;;;1.57;;
1699;SDS011;847;48.058;7.810;2023-05-10T09:55:14;4.20;;;1.27;;
1699;SDS011;847;48.058;7.810;2023-05-10T09:57:42;2.50;;;1.73;;
1699;SDS011;847;48.058;7.810;2023-05-10T10:00:09;1.70;;;1.30;;
1699;SDS011;847;48.058;7.810;2023-05-10T10:02:38;4.23;;;1.60;;
1699;SDS011;847;48.058;7.810;2023-05-10T10:05:06;4.27;;;1.30;;
1699;SDS011;847;48.058;7.810;2023-05-10T10:07:33;6.67;;;1.40;;
1699;SDS011;847;48.058;7.810;2023-05-10T10:10:00;5.27;;;1.70;;
1699;SDS011;847;48.058;7.810;2023-05-10T10:12:28;3.67;;;1.77;;
1699;SDS011;847;48.058;7.810;2023-05-10T10:14:55;3.63;;;1.33;;
1699;SDS011;847;48.058;7.810;2023-05-10T10:17:23;4.00;;;1.63;;
1699;SDS011;847;48.058;7.810;2023-05-10T10:19:54;1.70;;;1.20;;
1699;SDS011;847;48.058;7.810;2023-05-10T10:22:23;3.60;;;1.83;;
1699;SDS011;847;48.058;7.810;2023-05-10T10:24:50;3.70;;;1.30;;
1699;SDS011;847;48.058;7.810;2023-05-10T10:27:19;3.83;;;1.77;;
1699;SDS011;847;48.058;7.810;2023-05-10T10:29:53;3.60;;;1.70;;
1699;SDS011;847;48.058;7.810;2023-05-10T10:32:29;4.73;;;1.53;;
1699;SDS011;847;48.058;7.810;2023-05-10T10:35:06;1.53;;;1.23;;
1699;SDS011;847;48.058;7.810;2023-05-10T10:37:43;2.23;;;1.30;;
1699;SDS011;847;48.058;7.810;2023-05-10T10:40:22;2.57;;;1.03;;
1699;SDS011;847;48.058;7.810;2023-05-10T10:42:49;2.20;;;1.40;;
1699;SDS011;847;48.058;7.810;2023-05-10T10:45:16;1.40;;;0.93;;
1699;SDS011;847;48.058;7.810;2023-05-10T10:47:43;2.40;;;1.07;;
1699;SDS011;847;48.058;7.810;2023-05-10T10:50:12;2.20;;;1.10;;
1699;SDS011;847;48.058;7.810;2023-05-10T10:52:41;1.13;;;0.90;;
1699;SDS011;847;48.058;7.810;2023-05-10T10:55:08;0.90;;;0.70;;
1699;SDS011;847;48.058;7.810;2023-05-10T10:57:45;1.67;;;0.90;;
1699;SDS011;847;48.058;7.810;2023-05-10T11:00:23;2.20;;;1.00;;
1699;SDS011;847;48.058;7.810;2023-05-10T11:02:53;3.47;;;1.10;;
1699;SDS011;847;48.058;7.810;2023-05-10T11:08:15;1.43;;;1.00;;
1699;SDS011;847;48.058;7.810;2023-05-10T11:13:38;2.23;;;0.90;;
1699;SDS011;847;48.058;7.810;2023-05-10T11:16:15;1.57;;;1.17;;
1699;SDS011;847;48.058;7.810;2023-05-10T11:18:53;2.13;;;1.00;;
1699;SDS011;847;48.058;7.810;2023-05-10T11:21:25;1.30;;;1.10;;
1699;SDS011;847;48.058;7.810;2023-05-10T11:23:52;2.63;;;1.20;;
1699;SDS011;847;48.058;7.810;2023-05-10T11:26:22;2.40;;;1.10;;
1699;SDS011;847;48.058;7.810;2023-05-10T11:28:51;2.50;;;1.07;;
1699;SDS011;847;48.058;7.810;2023-05-10T11:31:20;1.77;;;0.90;;
1699;SDS011;847;48.058;7.810;2023-05-10T11:33:48;1.50;;;1.27;;
1699;SDS011;847;48.058;7.810;2023-05-10T11:36:17;2.97;;;1.10;;
1699;SDS011;847;48.058;7.810;2023-05-10T11:38:46;4.00;;;1.13;;
1699;SDS011;847;48.058;7.810;2023-05-10T11:41:14;3.10;;;0.93;;
1699;SDS011;847;48.058;7.810;2023-05-10T11:43:42;1.90;;;1.20;;
1699;SDS011;847;48.058;7.810;2023-05-10T11:46:12;1.80;;;1.10;;
1699;SDS011;847;48.058;7.810;2023-05-10T11:48:39;4.20;;;1.50;;
1699;SDS011;847;48.058;7.810;2023-05-10T11:51:06;1.67;;;1.00;;
1699;SDS011;847;48.058;7.810;2023-05-10T11:53:33;3.30;;;1.27;;
1699;SDS011;847;48.058;7.810;2023-05-10T11:56:05;2.40;;;1.03;;
1699;SDS011;847;48.058;7.810;2023-05-10T11:58:32;3.60;;;1.63;;
1699;SDS011;847;48.058;7.810;2023-05-10T12:01:00;5.30;;;1.00;;
1699;SDS011;847;48.058;7.810;2023-05-10T12:03:27;2.40;;;1.20;;
1699;SDS011;847;48.058;7.810;2023-05-10T12:05:55;3.67;;;1.90;;
1699;SDS011;847;48.058;7.810;2023-05-10T12:08:22;4.17;;;0.90;;
1699;SDS011;847;48.058;7.810;2023-05-10T12:10:50;3.17;;;1.47;;
1699;SDS011;847;48.058;7.810;2023-05-10T12:13:19;3.47;;;1.00;;
1699;SDS011;847;48.058;7.810;2023-05-10T12:15:46;3.90;;;0.93;;
1699;SDS011;847;48.058;7.810;2023-05-10T12:18:14;0.83;;;0.83;;
1699;SDS011;847;48.058;7.810;2023-05-10T12:20:40;1.30;;;0.90;;
1699;SDS011;847;48.058;7.810;2023-05-10T12:23:08;2.27;;;1.00;;
1699;SDS011;847;48.058;7.810;2023-05-10T12:25:36;2.20;;;0.90;;
1699;SDS011;847;48.058;7.810;2023-05-10T12:28:04;2.63;;;0.83;;
1699;SDS011;847;48.058;7.810;2023-05-10T12:30:34;6.83;;;1.00;;
1699;SDS011;847;48.058;7.810;2023-05-10T12:33:01;1.57;;;0.90;;
1699;SDS011;847;48.058;7.810;2023-05-10T12:35:33;3.50;;;2.23;;
1699;SDS011;847;48.058;7.810;2023-05-10T12:38:22;0.80;;;0.77;;
1699;SDS011;847;48.058;7.810;2023-05-10T12:40:51;2.17;;;0.90;;
1699;SDS011;847;48.058;7.810;2023-05-10T12:43:18;3.43;;;2.03;;
1699;SDS011;847;48.058;7.810;2023-05-10T12:45:46;3.10;;;1.23;;
1699;SDS011;847;48.058;7.810;2023-05-10T12:48:13;3.23;;;0.90;;
1699;SDS011;847;48.058;7.810;2023-05-10T12:50:40;2.00;;;0.80;;
1699;SDS011;847;48.058;7.810;2023-05-10T12:53:07;1.10;;;0.70;;
1699;SDS011;847;48.058;7.810;2023-05-10T12:55:34;0.83;;;0.80;;
1699;SDS011;847;48.058;7.810;2023-05-10T12:58:01;2.33;;;0.80;;
1699;SDS011;847;48.058;7.810;2023-05-10T13:00:27;1.97;;;0.90;;
1699;SDS011;847;48.058;7.810;2023-05-10T13:02:56;3.77;;;0.90;;
1699;SDS011;847;48.058;7.810;2023-05-10T13:05:22;0.90;;;0.70;;
1699;SDS011;847;48.058;7.810;2023-05-10T13:07:49;2.40;;;0.60;;
1699;SDS011;847;48.058;7.810;2023-05-10T13:10:16;0.87;;;0.50;;
1699;SDS011;847;48.058;7.810;2023-05-10T13:12:43;2.90;;;0.60;;
1699;SDS011;847;48.058;7.810;2023-05-10T13:15:09;1.17;;;0.47;;
1699;SDS011;847;48.058;7.810;2023-05-10T13:17:36;1.83;;;0.70;;
1699;SDS011;847;48.058;7.810;2023-05-10T13:20:06;1.70;;;0.60;;
1699;SDS011;847;48.058;7.810;2023-05-10T13:22:33;1.73;;;0.60;;
1699;SDS011;847;48.058;7.810;2023-05-10T13:25:00;1.13;;;0.50;;
1699;SDS011;847;48.058;7.810;2023-05-10T13:27:26;1.37;;;0.60;;
1699;SDS011;847;48.058;7.810;2023-05-10T13:29:53;1.33;;;0.50;;
1699;SDS011;847;48.058;7.810;2023-05-10T13:32:20;0.97;;;0.67;;
1699;SDS011;847;48.058;7.810;2023-05-10T13:34:47;1.60;;;0.60;;
1699;SDS011;847;48.058;7.810;2023-05-10T13:37:15;0.87;;;0.60;;
1699;SDS011;847;48.058;7.810;2023-05-10T13:39:42;0.90;;;0.80;;
1699;SDS011;847;48.058;7.810;2023-05-10T13:42:08;0.90;;;0.70;;
1699;SDS011;847;48.058;7.810;2023-05-10T13:44:35;2.60;;;0.87;;
1699;SDS011;847;48.058;7.810;2023-05-10T13:47:03;1.20;;;0.73;;
1699;SDS011;847;48.058;7.810;2023-05-10T13:49:30;1.00;;;0.60;;
1699;SDS011;847;48.058;7.810;2023-05-10T13:51:57;1.23;;;0.50;;
1699;SDS011;847;48.058;7.810;2023-05-10T13:54:25;0.60;;;0.40;;
1699;SDS011;847;48.058;7.810;2023-05-10T13:56:54;2.53;;;1.00;;
1699;SDS011;847;48.058;7.810;2023-05-10T13:59:21;1.63;;;0.70;;
1699;SDS011;847;48.058;7.810;2023-05-10T14:01:48;1.73;;;0.60;;
1699;SDS011;847;48.058;7.810;2023-05-10T14:04:14;0.90;;;0.60;;
1699;SDS011;847;48.058;7.810;2023-05-10T14:06:41;2.90;;;0.77;;
1699;SDS011;847;48.058;7.810;2023-05-10T14:09:08;1.23;;;0.77;;
1699;SDS011;847;48.058;7.810;2023-05-10T14:11:36;2.13;;;0.70;;
1699;SDS011;847;48.058;7.810;2023-05-10T14:14:06;1.77;;;0.60;;
1699;SDS011;847;48.058;7.810;2023-05-10T14:16:33;2.60;;;0.40;;
1699;SDS011;847;48.058;7.810;2023-05-10T14:19:00;1.40;;;0.70;;
1699;SDS011;847;48.058;7.810;2023-05-10T14:21:27;2.50;;;1.63;;
1699;SDS011;847;48.058;7.810;2023-05-10T14:23:55;0.90;;;0.70;;
1699;SDS011;847;48.058;7.810;2023-05-10T14:26:22;0.90;;;0.60;;
1699;SDS011;847;48.058;7.810;2023-05-10T14:28:50;1.20;;;0.60;;
1699;SDS011;847;48.058;7.810;2023-05-10T14:31:17;0.60;;;0.60;;
1699;SDS011;847;48.058;7.810;2023-05-10T14:33:45;3.00;;;0.43;;
1699;SDS011;847;48.058;7.810;2023-05-10T14:36:12;0.70;;;0.57;;
1699;SDS011;847;48.058;7.810;2023-05-10T14:38:38;0.83;;;0.80;;
1699;SDS011;847;48.058;7.810;2023-05-10T14:41:05;1.17;;;0.50;;
1699;SDS011;847;48.058;7.810;2023-05-10T14:43:32;0.50;;;0.40;;
1699;SDS011;847;48.058;7.810;2023-05-10T14:46:00;1.60;;;0.63;;
1699;SDS011;847;48.058;7.810;2023-05-10T14:48:27;0.80;;;0.50;;
1699;SDS011;847;48.058;7.810;2023-05-10T14:50:54;1.30;;;0.60;;
1699;SDS011;847;48.058;7.810;2023-05-10T14:53:20;1.07;;;0.63;;
1699;SDS011;847;48.058;7.810;2023-05-10T14:55:47;0.73;;;0.50;;
1699;SDS011;847;48.058;7.810;2023-05-10T14:58:14;1.17;;;0.50;;
1699;SDS011;847;48.058;7.810;2023-05-10T15:00:41;0.57;;;0.57;;
1699;SDS011;847;48.058;7.810;2023-05-10T15:03:09;0.70;;;0.60;;
1699;SDS011;847;48.058;7.810;2023-05-10T15:05:36;0.70;;;0.63;;
1699;SDS011;847;48.058;7.810;2023-05-10T15:08:03;1.10;;;0.53;;
1699;SDS011;847;48.058;7.810;2023-05-10T15:10:30;0.87;;;0.70;;
1699;SDS011;847;48.058;7.810;2023-05-10T15:12:57;1.73;;;0.53;;
1699;SDS011;847;48.058;7.810;2023-05-10T15:15:24;0.90;;;0.70;;
1699;SDS011;847;48.058;7.810;2023-05-10T15:17:51;1.77;;;0.60;;
1699;SDS011;847;48.058;7.810;2023-05-10T15:20:19;1.60;;;0.70;;
1699;SDS011;847;48.058;7.810;2023-05-10T15:22:45;4.50;;;0.70;;
1699;SDS011;847;48.058;7.810;2023-05-10T15:25:12;1.07;;;0.73;;
1699;SDS011;847;48.058;7.810;2023-05-10T15:27:40;1.87;;;0.70;;
1699;SDS011;847;48.058;7.810;2023-05-10T15:30:08;1.97;;;0.60;;
1699;SDS011;847;48.058;7.810;2023-05-10T15:32:36;1.03;;;0.77;;
1699;SDS011;847;48.058;7.810;2023-05-10T15:35:05;1.33;;;0.70;;
1699;SDS011;847;48.058;7.810;2023-05-10T15:37:33;0.67;;;0.60;;
1699;SDS011;847;48.058;7.810;2023-05-10T15:40:00;1.23;;;0.60;;
1699;SDS011;847;48.058;7.810;2023-05-10T15:42:28;1.40;;;0.53;;